Time;durP1;ratioP1;P1;durP2;ratioP2;P2;SDS_P1;SDS_P2;PMS_P1;PMS_P2;Temp;Humidity;BMP_temperature;BMP_pressure;BME280_temperature;BME280_humidity;BME280_pressure;Samples;Min_cycle;Max_cycle;Signal;HPM_P1;HPM_P2
2021/04/20 00:01:16;;;;;;;14.13;10.73;;;;;;;;;;5083999;28;32073;-73
2021/04/20 00:03:42;;;;;;;20.23;12.13;;;;;;;;;;5085738;28;33070;-70
2021/04/20 00:06:08;;;;;;;20.80;13.10;;;;;;;;;;5083874;28;32627;-71
2021/04/20 00:08:34;;;;;;;23.13;13.18;;;;;;;;;;5083468;28;32438;-71
2021/04/20 00:11:00;;;;;;;18.08;12.07;;;;;;;;;;5083761;28;32150;-71
2021/04/20 00:13:26;;;;;;;18.20;13.10;;;;;;;;;;5083593;28;32170;-71
2021/04/20 00:15:51;;;;;;;16.45;12.27;;;;;;;;;;5084052;28;33620;-70
2021/04/20 00:18:17;;;;;;;16.33;12.13;;;;;;;;;;5083614;28;32121;-70
2021/04/20 00:20:43;;;;;;;16.90;12.57;;;;;;;;;;5083365;28;32649;-70
2021/04/20 00:23:09;;;;;;;15.15;11.65;;;;;;;;;;5084149;28;32007;-70
2021/04/20 00:25:35;;;;;;;16.25;12.13;;;;;;;;;;5083403;28;32565;-71
2021/04/20 00:28:01;;;;;;;13.50;10.88;;;;;;;;;;5083233;28;32187;-71
2021/04/20 00:30:27;;;;;;;14.57;10.48;;;;;;;;;;5083205;28;33184;-70
2021/04/20 00:32:53;;;;;;;15.38;11.43;;;;;;;;;;5083337;28;32022;-70
2021/04/20 00:35:18;;;;;;;13.05;10.43;;;;;;;;;;5083112;28;33470;-72
2021/04/20 00:37:44;;;;;;;13.55;10.90;;;;;;;;;;5083276;28;32233;-72
2021/04/20 00:40:12;;;;;;;13.25;10.40;;;;;;;;;;5083132;28;32675;-72
2021/04/20 00:42:47;;;;;;;12.20;10.27;;;;;;;;;;5084054;28;32054;-71
2021/04/20 00:45:14;;;;;;;16.02;10.15;;;;;;;;;;5084726;28;32618;-70
2021/04/20 00:47:40;;;;;;;16.17;10.82;;;;;;;;;;5085625;28;32383;-70
2021/04/20 00:50:07;;;;;;;13.40;10.00;;;;;;;;;;5084178;28;32003;-71
2021/04/20 00:52:32;;;;;;;16.17;10.35;;;;;;;;;;5083047;28;32163;-70
2021/04/20 00:54:58;;;;;;;12.80;10.32;;;;;;;;;;5081084;28;31069;-70
2021/04/20 00:57:24;;;;;;;11.50;9.20;;;;;;;;;;5080434;28;31177;-71
2021/04/20 00:59:50;;;;;;;15.25;10.15;;;;;;;;;;5082896;28;31896;-72
2021/04/20 01:02:16;;;;;;;13.07;8.68;;;;;;;;;;5083029;28;32561;-73
2021/04/20 01:04:41;;;;;;;13.23;8.90;;;;;;;;;;5082877;28;32974;-72
2021/04/20 01:07:07;;;;;;;13.23;9.15;;;;;;;;;;5081660;28;31452;-70
2021/04/20 01:09:33;;;;;;;19.50;8.85;;;;;;;;;;5082707;28;32138;-71
2021/04/20 01:11:59;;;;;;;15.68;8.95;;;;;;;;;;5082826;28;32028;-71
2021/04/20 01:14:24;;;;;;;14.20;9.18;;;;;;;;;;5082842;28;32519;-74
2021/04/20 01:16:50;;;;;;;11.68;7.18;;;;;;;;;;5082523;28;36734;-72
2021/04/20 01:19:16;;;;;;;15.75;6.93;;;;;;;;;;5082345;28;31858;-73
2021/04/20 01:21:43;;;;;;;8.30;5.90;;;;;;;;;;5082111;28;32246;-72
2021/04/20 01:24:08;;;;;;;7.57;5.93;;;;;;;;;;5082362;28;33454;-70
2021/04/20 01:26:39;;;;;;;10.80;7.63;;;;;;;;;;5081983;28;33257;-71
2021/04/20 01:29:05;;;;;;;14.35;8.85;;;;;;;;;;5082223;28;32452;-72
2021/04/20 01:31:32;;;;;;;14.32;10.10;;;;;;;;;;5082402;28;32139;-73
2021/04/20 01:33:58;;;;;;;13.80;9.45;;;;;;;;;;5082823;28;32639;-68
2021/04/20 01:36:24;;;;;;;11.07;8.20;;;;;;;;;;5082302;28;33298;-74
2021/04/20 01:38:51;;;;;;;11.63;8.88;;;;;;;;;;5082236;28;31665;-68
2021/04/20 01:41:17;;;;;;;11.15;7.85;;;;;;;;;;5080801;28;31323;-72
2021/04/20 01:43:43;;;;;;;13.38;9.35;;;;;;;;;;5082484;28;33653;-69
2021/04/20 01:46:08;;;;;;;17.20;8.95;;;;;;;;;;5082185;28;33134;-69
2021/04/20 01:48:34;;;;;;;11.38;8.15;;;;;;;;;;5082196;28;31956;-79
2021/04/20 01:51:00;;;;;;;13.93;9.95;;;;;;;;;;5082217;28;32229;-76
2021/04/20 01:53:26;;;;;;;13.68;9.23;;;;;;;;;;5082156;28;32451;-68
2021/04/20 01:55:59;;;;;;;20.63;11.15;;;;;;;;;;5081583;28;32425;-78
2021/04/20 01:58:25;;;;;;;13.00;8.85;;;;;;;;;;5082096;28;33012;-74
2021/04/20 02:00:51;;;;;;;14.30;9.82;;;;;;;;;;5081636;28;32959;-75
2021/04/20 02:03:17;;;;;;;19.23;12.13;;;;;;;;;;5081835;28;32571;-75
2021/04/20 02:05:43;;;;;;;14.60;9.77;;;;;;;;;;5082068;28;31989;-70
2021/04/20 02:08:08;;;;;;;18.38;11.27;;;;;;;;;;5081293;28;33121;-70
2021/04/20 02:10:34;;;;;;;23.02;12.50;;;;;;;;;;5082609;28;32118;-73
2021/04/20 02:13:00;;;;;;;19.98;12.07;;;;;;;;;;5080372;28;31165;-68
2021/04/20 02:15:26;;;;;;;23.13;14.63;;;;;;;;;;5081201;28;32398;-74
2021/04/20 02:17:53;;;;;;;20.77;13.20;;;;;;;;;;5081556;28;32064;-68
2021/04/20 02:20:20;;;;;;;27.25;14.85;;;;;;;;;;5081514;28;31946;-71
2021/04/20 02:22:47;;;;;;;24.33;14.20;;;;;;;;;;5081014;28;32581;-71
2021/04/20 02:25:14;;;;;;;18.70;11.18;;;;;;;;;;5081439;28;32112;-71
2021/04/20 02:27:40;;;;;;;18.90;10.23;;;;;;;;;;5081272;28;38917;-71
2021/04/20 02:30:07;;;;;;;13.88;9.02;;;;;;;;;;5082064;28;32921;-71
2021/04/20 02:32:36;;;;;;;13.68;9.15;;;;;;;;;;5081603;28;32606;-70
2021/04/20 02:35:03;;;;;;;20.67;9.07;;;;;;;;;;5081374;28;32296;-70
2021/04/20 02:37:29;;;;;;;20.65;12.15;;;;;;;;;;5080879;28;32904;-71
2021/04/20 02:39:55;;;;;;;26.00;14.20;;;;;;;;;;5081925;28;32005;-73
2021/04/20 02:42:21;;;;;;;25.63;14.82;;;;;;;;;;5081294;28;32593;-70
2021/04/20 02:44:47;;;;;;;23.63;14.60;;;;;;;;;;5081159;28;32256;-71
2021/04/20 02:47:13;;;;;;;24.33;13.90;;;;;;;;;;5081291;28;31679;-72
2021/04/20 02:49:39;;;;;;;23.58;14.38;;;;;;;;;;5080979;28;32006;-72
2021/04/20 02:52:05;;;;;;;21.67;13.93;;;;;;;;;;5081203;28;32533;-72
2021/04/20 02:54:30;;;;;;;22.67;14.63;;;;;;;;;;5080704;28;32107;-70
2021/04/20 02:56:57;;;;;;;24.80;14.55;;;;;;;;;;5081141;28;32755;-72
2021/04/20 02:59:23;;;;;;;22.95;13.88;;;;;;;;;;5080980;28;32027;-71
2021/04/20 03:01:50;;;;;;;21.73;13.50;;;;;;;;;;5079824;28;33377;-73
2021/04/20 03:04:19;;;;;;;23.30;13.57;;;;;;;;;;5081583;28;33256;-75
2021/04/20 03:06:45;;;;;;;22.73;13.52;;;;;;;;;;5080557;28;32159;-73
2021/04/20 03:09:11;;;;;;;19.83;13.20;;;;;;;;;;5081355;28;32302;-76
2021/04/20 03:11:39;;;;;;;25.17;13.77;;;;;;;;;;5081068;28;33100;-71
2021/04/20 03:14:06;;;;;;;19.02;11.90;;;;;;;;;;5081021;28;32335;-76
2021/04/20 03:16:35;;;;;;;24.40;14.27;;;;;;;;;;5081355;28;33058;-79
2021/04/20 03:19:02;;;;;;;20.88;13.02;;;;;;;;;;5081315;28;32822;-74
2021/04/20 03:21:28;;;;;;;19.02;12.10;;;;;;;;;;5084897;28;33228;-74
2021/04/20 03:23:55;;;;;;;21.60;14.27;;;;;;;;;;5084829;28;33259;-68
2021/04/20 03:26:41;;;;;;;23.77;14.80;;;;;;;;;;5084693;28;33051;-75
2021/04/20 03:29:08;;;;;;;21.48;12.77;;;;;;;;;;5083846;28;30869;-78
2021/04/20 03:31:40;;;;;;;21.45;12.30;;;;;;;;;;5083926;28;32725;-74
2021/04/20 03:34:21;;;;;;;26.48;14.75;;;;;;;;;;5084569;28;32340;-76
2021/04/20 03:37:01;;;;;;;20.35;12.68;;;;;;;;;;5083921;28;32062;-73
2021/04/20 03:39:27;;;;;;;19.90;12.98;;;;;;;;;;5084198;28;31748;-71
2021/04/20 03:41:56;;;;;;;21.08;11.48;;;;;;;;;;5084278;28;33581;-68
2021/04/20 03:44:24;;;;;;;21.33;12.18;;;;;;;;;;5084070;28;32283;-73
2021/04/20 03:46:51;;;;;;;21.70;13.10;;;;;;;;;;5084149;28;32865;-72
2021/04/20 03:49:20;;;;;;;34.70;14.55;;;;;;;;;;5084297;28;32874;-73
2021/04/20 03:51:46;;;;;;;22.95;12.73;;;;;;;;;;5082293;28;32329;-72
2021/04/20 03:54:14;;;;;;;29.52;15.25;;;;;;;;;;5083899;28;33205;-78
2021/04/20 03:56:43;;;;;;;21.85;13.85;;;;;;;;;;5083588;28;32150;-74
2021/04/20 03:59:09;;;;;;;22.15;14.00;;;;;;;;;;5083799;28;32180;-67
2021/04/20 04:01:39;;;;;;;26.05;14.35;;;;;;;;;;5083887;28;32533;-74
2021/04/20 04:04:06;;;;;;;31.10;17.75;;;;;;;;;;5084353;28;32330;-74
2021/04/20 04:06:34;;;;;;;28.00;16.27;;;;;;;;;;5082633;28;31988;-76
2021/04/20 04:09:01;;;;;;;29.58;16.63;;;;;;;;;;5083707;28;31957;-69
2021/04/20 04:11:27;;;;;;;33.05;18.58;;;;;;;;;;5083580;28;33548;-69
2021/04/20 04:13:53;;;;;;;34.53;18.30;;;;;;;;;;5083760;28;32256;-69
2021/04/20 04:16:22;;;;;;;24.45;15.38;;;;;;;;;;5083697;28;32665;-71
2021/04/20 04:18:51;;;;;;;26.98;15.35;;;;;;;;;;5083162;28;32027;-72
2021/04/20 04:21:18;;;;;;;29.45;16.77;;;;;;;;;;5083596;28;32617;-70
2021/04/20 04:23:46;;;;;;;29.33;15.77;;;;;;;;;;5083614;28;32252;-71
2021/04/20 04:26:14;;;;;;;24.90;15.60;;;;;;;;;;5083516;28;31996;-73
2021/04/20 04:28:42;;;;;;;28.52;15.20;;;;;;;;;;5083476;28;32631;-71
2021/04/20 04:31:08;;;;;;;30.55;14.70;;;;;;;;;;5083770;28;32652;-69
2021/04/20 04:33:36;;;;;;;18.55;11.38;;;;;;;;;;5082187;28;30919;-73
2021/04/20 04:36:02;;;;;;;20.05;12.68;;;;;;;;;;5083280;28;32075;-75
2021/04/20 04:38:28;;;;;;;13.20;9.38;;;;;;;;;;5083895;28;31660;-69
2021/04/20 04:40:57;;;;;;;10.05;8.35;;;;;;;;;;5082257;28;33553;-70
2021/04/20 04:43:23;;;;;;;10.18;7.65;;;;;;;;;;5083189;28;32606;-72
2021/04/20 04:45:48;;;;;;;9.57;7.70;;;;;;;;;;5082135;28;31191;-70
2021/04/20 04:48:14;;;;;;;10.52;8.48;;;;;;;;;;5082354;28;31141;-71
2021/04/20 04:50:40;;;;;;;15.75;9.68;;;;;;;;;;5084074;28;33300;-75
2021/04/20 04:53:07;;;;;;;13.65;10.02;;;;;;;;;;5083690;28;32253;-79
2021/04/20 04:55:33;;;;;;;16.00;9.75;;;;;;;;;;5088978;28;32197;-73
2021/04/20 04:57:59;;;;;;;13.15;9.48;;;;;;;;;;5088793;28;32261;-78
2021/04/20 05:00:25;;;;;;;14.65;9.45;;;;;;;;;;5083779;28;32776;-80
2021/04/20 05:02:51;;;;;;;18.02;10.40;;;;;;;;;;5083861;28;32240;-79
2021/04/20 05:05:17;;;;;;;13.43;9.15;;;;;;;;;;5083778;28;33245;-81
2021/04/20 05:07:43;;;;;;;16.17;8.65;;;;;;;;;;5081997;28;30662;-79
2021/04/20 05:10:11;;;;;;;14.85;9.98;;;;;;;;;;5083144;28;32364;-78
2021/04/20 05:12:36;;;;;;;24.83;10.52;;;;;;;;;;5083183;28;32287;-80
2021/04/20 05:15:06;;;;;;;13.63;9.40;;;;;;;;;;5083105;28;32159;-80
2021/04/20 05:17:32;;;;;;;11.68;8.57;;;;;;;;;;5082878;28;31776;-80
2021/04/20 05:19:58;;;;;;;17.70;10.15;;;;;;;;;;5082942;28;32533;-79
2021/04/20 05:22:24;;;;;;;16.02;9.60;;;;;;;;;;5083090;28;32344;-74
2021/04/20 05:24:49;;;;;;;22.10;12.13;;;;;;;;;;5082744;28;32076;-80
2021/04/20 05:27:15;;;;;;;20.70;11.30;;;;;;;;;;5082625;28;32114;-81
2021/04/20 05:29:41;;;;;;;20.23;11.25;;;;;;;;;;5081499;28;32446;-79
2021/04/20 05:32:09;;;;;;;19.92;11.93;;;;;;;;;;5082793;28;33094;-79
2021/04/20 05:34:35;;;;;;;17.20;10.77;;;;;;;;;;5082557;28;32980;-82
2021/04/20 05:37:02;;;;;;;23.17;12.63;;;;;;;;;;5082238;28;32084;-82
2021/04/20 05:39:28;;;;;;;28.80;14.18;;;;;;;;;;5082926;28;32580;-82
2021/04/20 05:41:54;;;;;;;30.38;16.13;;;;;;;;;;5081639;28;33184;-76
2021/04/20 05:44:20;;;;;;;24.58;14.00;;;;;;;;;;5082277;28;31966;-77
2021/04/20 05:46:47;;;;;;;33.15;16.17;;;;;;;;;;5081187;28;31683;-80
2021/04/20 05:49:13;;;;;;;28.45;16.13;;;;;;;;;;5081871;28;33550;-82
2021/04/20 05:51:41;;;;;;;24.95;13.90;;;;;;;;;;5081914;28;33299;-82
2021/04/20 05:54:08;;;;;;;26.02;14.50;;;;;;;;;;5082552;28;32744;-79
2021/04/20 05:56:33;;;;;;;22.67;14.35;;;;;;;;;;5082602;28;32992;-82
2021/04/20 05:59:00;;;;;;;32.55;15.63;;;;;;;;;;5082858;28;33628;-83
2021/04/20 06:01:27;;;;;;;24.25;13.00;;;;;;;;;;5082209;28;32451;-80
2021/04/20 06:03:53;;;;;;;17.42;11.30;;;;;;;;;;5082598;28;32103;-80
2021/04/20 06:06:20;;;;;;;14.70;8.80;;;;;;;;;;5081818;28;31987;-83
2021/04/20 06:08:47;;;;;;;9.32;7.35;;;;;;;;;;5081759;28;32576;-83
2021/04/20 06:11:13;;;;;;;7.75;6.82;;;;;;;;;;5081831;28;32557;-82
2021/04/20 06:13:39;;;;;;;8.25;6.40;;;;;;;;;;5081757;28;33035;-78
2021/04/20 06:16:06;;;;;;;14.55;8.10;;;;;;;;;;5082899;28;33121;-80
2021/04/20 06:18:32;;;;;;;12.18;8.52;;;;;;;;;;5082017;28;33677;-79
2021/04/20 06:20:59;;;;;;;10.02;7.82;;;;;;;;;;5081653;28;32401;-76
2021/04/20 06:23:25;;;;;;;11.60;8.68;;;;;;;;;;5081484;28;32107;-69
2021/04/20 06:25:51;;;;;;;12.35;9.43;;;;;;;;;;5081730;28;33067;-81
2021/04/20 06:28:17;;;;;;;10.85;8.40;;;;;;;;;;5081469;28;32276;-79
2021/04/20 06:30:43;;;;;;;14.80;8.75;;;;;;;;;;5081726;28;32243;-82
2021/04/20 06:33:09;;;;;;;13.10;9.30;;;;;;;;;;5081000;28;31928;-80
2021/04/20 06:35:36;;;;;;;12.85;9.35;;;;;;;;;;5081379;28;32273;-74
2021/04/20 06:38:02;;;;;;;12.75;9.35;;;;;;;;;;5078551;28;32528;-74
2021/04/20 06:40:38;;;;;;;15.90;9.43;;;;;;;;;;5081379;28;33252;-71
2021/04/20 06:43:05;;;;;;;11.35;9.07;;;;;;;;;;5081183;28;32048;-75
2021/04/20 06:45:36;;;;;;;13.07;9.35;;;;;;;;;;5081400;28;31993;-73
2021/04/20 06:48:21;;;;;;;15.05;11.00;;;;;;;;;;5081155;28;32580;-73
2021/04/20 06:50:52;;;;;;;16.70;11.95;;;;;;;;;;5079782;28;31521;-74
2021/04/20 06:53:19;;;;;;;17.67;12.63;;;;;;;;;;5081131;28;32952;-75
2021/04/20 06:56:04;;;;;;;19.83;12.85;;;;;;;;;;5081030;28;32015;-77
2021/04/20 06:58:35;;;;;;;21.38;14.68;;;;;;;;;;5081128;28;32372;-72
2021/04/20 07:01:06;;;;;;;24.60;15.98;;;;;;;;;;5078434;28;33304;-75
2021/04/20 07:03:39;;;;;;;34.33;19.90;;;;;;;;;;5077069;28;32657;-72
2021/04/20 07:06:13;;;;;;;31.02;19.98;;;;;;;;;;5081019;28;31919;-75
2021/04/20 07:08:57;;;;;;;32.25;18.65;;;;;;;;;;5080946;28;33611;-75
2021/04/20 07:11:24;;;;;;;34.03;19.77;;;;;;;;;;5081084;28;32246;-73
2021/04/20 07:13:55;;;;;;;30.63;18.38;;;;;;;;;;5080768;28;32201;-75
2021/04/20 07:16:23;;;;;;;33.05;20.17;;;;;;;;;;5081189;28;31568;-74
2021/04/20 07:18:52;;;;;;;36.03;21.23;;;;;;;;;;5080580;28;32538;-77
2021/04/20 07:21:36;;;;;;;39.63;23.27;;;;;;;;;;5079937;28;31117;-79
2021/04/20 07:24:14;;;;;;;38.08;22.85;;;;;;;;;;5082409;28;31964;-75
2021/04/20 07:26:59;;;;;;;39.92;24.50;;;;;;;;;;5080523;28;32160;-76
2021/04/20 07:29:39;;;;;;;49.10;25.67;;;;;;;;;;5080406;28;32612;-72
2021/04/20 07:32:19;;;;;;;44.75;24.30;;;;;;;;;;5079427;28;30978;-74
2021/04/20 07:35:04;;;;;;;48.53;27.10;;;;;;;;;;5078071;28;32061;-75
2021/04/20 07:37:41;;;;;;;54.42;27.27;;;;;;;;;;5080480;28;32086;-76
2021/04/20 07:40:26;;;;;;;50.55;27.42;;;;;;;;;;5080419;28;32673;-75
2021/04/20 07:42:51;;;;;;;48.30;25.90;;;;;;;;;;5080591;28;37802;-73
2021/04/20 07:45:21;;;;;;;49.22;28.08;;;;;;;;;;5080600;28;32009;-75
2021/04/20 07:47:52;;;;;;;52.00;28.02;;;;;;;;;;5080159;28;31996;-78
2021/04/20 07:50:22;;;;;;;54.88;27.60;;;;;;;;;;5080419;28;33595;-76
2021/04/20 07:52:47;;;;;;;53.85;27.75;;;;;;;;;;5080901;28;32376;-75
2021/04/20 07:55:18;;;;;;;59.08;29.70;;;;;;;;;;5080695;28;31883;-78
2021/04/20 07:57:47;;;;;;;53.50;27.27;;;;;;;;;;5080229;28;31929;-76
2021/04/20 08:00:17;;;;;;;53.25;27.27;;;;;;;;;;5080700;28;33177;-76
2021/04/20 08:03:05;;;;;;;63.92;31.45;;;;;;;;;;5080808;28;32419;-74
2021/04/20 08:05:41;;;;;;;60.35;29.95;;;;;;;;;;5081833;28;37207;-75
2021/04/20 08:08:10;;;;;;;62.08;31.17;;;;;;;;;;5083348;28;33034;-75
2021/04/20 08:10:38;;;;;;;62.60;31.25;;;;;;;;;;5084080;28;33577;-75
2021/04/20 08:13:24;;;;;;;65.90;30.30;;;;;;;;;;5083637;28;32952;-78
2021/04/20 08:15:51;;;;;;;60.08;30.75;;;;;;;;;;5082411;28;31887;-75
2021/04/20 08:18:21;;;;;;;69.65;31.67;;;;;;;;;;5084383;28;31986;-76
2021/04/20 08:20:47;;;;;;;65.38;33.53;;;;;;;;;;5083872;28;32500;-75
2021/04/20 08:23:14;;;;;;;66.05;33.53;;;;;;;;;;5083654;28;32229;-73
2021/04/20 08:25:41;;;;;;;68.18;33.80;;;;;;;;;;5083498;28;31886;-74
2021/04/20 08:28:11;;;;;;;67.68;34.35;;;;;;;;;;5082940;28;32978;-69
2021/04/20 08:31:06;;;;;;;71.50;35.03;;;;;;;;;;5083269;28;32761;-76
2021/04/20 08:33:35;;;;;;;68.40;33.75;;;;;;;;;;5082018;28;33194;-73
2021/04/20 08:36:08;;;;;;;69.80;31.02;;;;;;;;;;5082747;28;33126;-73
2021/04/20 08:38:43;;;;;;;66.78;31.17;;;;;;;;;;5080569;28;33036;-76
2021/04/20 08:41:30;;;;;;;64.57;30.83;;;;;;;;;;5080501;28;33346;-76
2021/04/20 08:44:00;;;;;;;67.15;31.00;;;;;;;;;;5083062;28;32823;-72
2021/04/20 08:46:34;;;;;;;69.60;31.52;;;;;;;;;;5082849;28;37252;-72
2021/04/20 08:49:19;;;;;;;70.78;31.25;;;;;;;;;;5083541;28;32187;-72
2021/04/20 08:51:54;;;;;;;73.82;33.95;;;;;;;;;;5083278;28;32292;-72
2021/04/20 08:54:29;;;;;;;74.72;34.85;;;;;;;;;;5083491;28;32308;-73
2021/04/20 08:57:03;;;;;;;73.53;35.05;;;;;;;;;;5080196;28;32037;-71
2021/04/20 08:59:51;;;;;;;71.53;33.17;;;;;;;;;;5082886;28;33056;-73
2021/04/20 09:02:17;;;;;;;71.78;32.60;;;;;;;;;;5082747;28;32514;-72
2021/04/20 09:04:58;;;;;;;61.55;29.48;;;;;;;;;;5082221;28;31725;-72
2021/04/20 09:07:27;;;;;;;70.35;31.25;;;;;;;;;;5083979;28;32966;-70
2021/04/20 09:09:53;;;;;;;70.88;30.92;;;;;;;;;;5084218;28;32327;-71
2021/04/20 09:12:21;;;;;;;76.80;32.63;;;;;;;;;;5082517;28;32537;-71
2021/04/20 09:14:48;;;;;;;69.18;33.00;;;;;;;;;;5082189;28;32430;-71
2021/04/20 09:17:18;;;;;;;75.90;35.15;;;;;;;;;;5077588;28;31914;-71
2021/04/20 09:19:47;;;;;;;62.20;28.48;;;;;;;;;;5082945;28;31956;-72
2021/04/20 09:22:39;;;;;;;68.47;32.53;;;;;;;;;;5082579;28;32619;-71
2021/04/20 09:25:11;;;;;;;66.07;30.73;;;;;;;;;;5083041;28;32158;-71
2021/04/20 09:27:43;;;;;;;42.83;19.25;;;;;;;;;;5082761;28;32069;-71
2021/04/20 09:30:14;;;;;;;74.57;34.33;;;;;;;;;;5082819;28;32568;-70
2021/04/20 09:32:43;;;;;;;78.35;32.55;;;;;;;;;;5082537;28;32130;-72
2021/04/20 09:35:10;;;;;;;62.75;29.92;;;;;;;;;;5081981;28;32416;-70
2021/04/20 09:37:36;;;;;;;62.10;30.08;;;;;;;;;;5082736;28;32504;-71
2021/04/20 09:40:03;;;;;;;41.03;18.35;;;;;;;;;;5082507;28;32968;-70
2021/04/20 09:42:29;;;;;;;68.28;29.35;;;;;;;;;;5082016;28;32594;-70
2021/04/20 09:45:17;;;;;;;52.85;24.50;;;;;;;;;;5082427;28;32286;-70
2021/04/20 09:47:48;;;;;;;62.60;29.15;;;;;;;;;;5081936;28;32892;-71
2021/04/20 09:50:16;;;;;;;60.03;28.48;;;;;;;;;;5079432;28;32143;-71
2021/04/20 09:52:50;;;;;;;63.92;27.25;;;;;;;;;;5081851;28;32570;-71
2021/04/20 09:55:20;;;;;;;60.65;30.15;;;;;;;;;;5081954;28;32371;-71
2021/04/20 09:57:46;;;;;;;65.05;32.20;;;;;;;;;;5081569;28;32862;-71
2021/04/20 10:00:13;;;;;;;69.15;31.05;;;;;;;;;;5081810;28;33070;-71
2021/04/20 10:02:45;;;;;;;45.47;20.67;;;;;;;;;;5081706;28;32585;-72
2021/04/20 10:05:17;;;;;;;23.65;11.48;;;;;;;;;;5081804;28;32352;-72
2021/04/20 10:08:02;;;;;;;50.17;22.83;;;;;;;;;;5081907;28;33018;-71
2021/04/20 10:10:58;;;;;;;24.58;10.63;;;;;;;;;;5082359;28;32062;-71
2021/04/20 10:13:41;;;;;;;27.70;12.90;;;;;;;;;;5079993;28;33611;-72
2021/04/20 10:16:18;;;;;;;25.97;11.33;;;;;;;;;;5078725;28;32273;-71
2021/04/20 10:18:52;;;;;;;29.10;11.02;;;;;;;;;;5081758;28;31955;-71
2021/04/20 10:21:27;;;;;;;18.85;10.38;;;;;;;;;;5082178;28;31969;-70
2021/04/20 10:24:02;;;;;;;31.77;13.32;;;;;;;;;;5080610;28;32511;-72
2021/04/20 10:26:42;;;;;;;22.05;9.23;;;;;;;;;;5082026;28;33217;-72
2021/04/20 10:29:20;;;;;;;42.42;20.00;;;;;;;;;;5081136;28;32970;-71
2021/04/20 10:31:53;;;;;;;39.60;19.60;;;;;;;;;;5081896;28;32933;-72
2021/04/20 10:34:19;;;;;;;53.90;24.23;;;;;;;;;;5081351;28;33060;-71
2021/04/20 10:36:52;;;;;;;46.78;23.27;;;;;;;;;;5081594;28;32262;-71
2021/04/20 10:39:19;;;;;;;58.55;26.20;;;;;;;;;;5081186;28;33062;-71
2021/04/20 10:41:46;;;;;;;50.75;25.75;;;;;;;;;;5081053;28;32116;-69
2021/04/20 10:44:13;;;;;;;53.63;25.77;;;;;;;;;;5080424;28;31055;-70
2021/04/20 10:46:39;;;;;;;22.30;12.88;;;;;;;;;;5081312;28;33237;-69
2021/04/20 10:49:05;;;;;;;42.53;19.23;;;;;;;;;;5080881;28;32041;-69
2021/04/20 10:51:35;;;;;;;19.02;10.80;;;;;;;;;;5081192;28;32484;-70
2021/04/20 10:54:01;;;;;;;27.73;14.52;;;;;;;;;;5081186;28;32559;-70
2021/04/20 10:56:28;;;;;;;51.40;24.70;;;;;;;;;;5080662;28;32495;-70
2021/04/20 10:58:56;;;;;;;50.85;25.77;;;;;;;;;;5080888;28;31785;-70
2021/04/20 11:01:24;;;;;;;27.58;13.13;;;;;;;;;;5081102;28;32791;-71
2021/04/20 11:03:51;;;;;;;30.00;12.30;;;;;;;;;;5079493;28;31186;-70
2021/04/20 11:06:35;;;;;;;20.13;9.07;;;;;;;;;;5080921;28;32288;-71
2021/04/20 11:09:01;;;;;;;43.65;22.25;;;;;;;;;;5081087;28;31753;-70
2021/04/20 11:11:27;;;;;;;50.92;25.55;;;;;;;;;;5080914;28;32049;-71
2021/04/20 11:13:53;;;;;;;17.67;9.27;;;;;;;;;;5078205;28;32622;-71
2021/04/20 11:16:32;;;;;;;51.17;25.25;;;;;;;;;;5080810;28;32509;-70
2021/04/20 11:19:01;;;;;;;24.52;9.43;;;;;;;;;;5078013;28;32054;-70
2021/04/20 11:21:28;;;;;;;51.60;26.92;;;;;;;;;;5080553;28;32091;-70
2021/04/20 11:23:58;;;;;;;46.13;22.38;;;;;;;;;;5080816;28;32689;-70
2021/04/20 11:26:29;;;;;;;16.27;9.23;;;;;;;;;;5077850;28;33258;-70
2021/04/20 11:28:57;;;;;;;18.08;8.75;;;;;;;;;;5077943;28;32830;-71
2021/04/20 11:31:36;;;;;;;16.70;7.10;;;;;;;;;;5080603;28;31990;-71
2021/04/20 11:34:02;;;;;;;51.35;21.38;;;;;;;;;;5080452;28;32577;-70
2021/04/20 11:36:40;;;;;;;19.23;9.00;;;;;;;;;;5080442;28;32881;-71
2021/04/20 11:39:07;;;;;;;44.90;21.98;;;;;;;;;;5080113;28;31997;-70
2021/04/20 11:41:42;;;;;;;44.78;21.45;;;;;;;;;;5083271;28;32997;-70
2021/04/20 11:44:08;;;;;;;15.40;8.23;;;;;;;;;;5081198;28;32521;-69
2021/04/20 11:46:34;;;;;;;28.55;14.50;;;;;;;;;;5083806;28;32401;-70
2021/04/20 11:49:15;;;;;;;17.63;7.45;;;;;;;;;;5083652;28;31888;-69
2021/04/20 11:51:44;;;;;;;17.23;6.90;;;;;;;;;;5082591;28;33053;-69
2021/04/20 11:54:17;;;;;;;23.70;12.80;;;;;;;;;;5083507;28;33509;-70
2021/04/20 11:56:43;;;;;;;18.17;11.30;;;;;;;;;;5081232;28;32370;-70
2021/04/20 11:59:09;;;;;;;15.70;6.82;;;;;;;;;;5084366;28;32586;-71
2021/04/20 12:01:35;;;;;;;12.30;6.82;;;;;;;;;;5083951;28;32194;-69
2021/04/20 12:04:02;;;;;;;33.35;15.45;;;;;;;;;;5083840;28;32614;-70
2021/04/20 12:06:38;;;;;;;24.05;12.45;;;;;;;;;;5083462;28;32332;-69
2021/04/20 12:09:04;;;;;;;17.02;9.40;;;;;;;;;;5082111;28;32322;-69
2021/04/20 12:11:30;;;;;;;34.78;17.73;;;;;;;;;;5083780;28;32044;-70
2021/04/20 12:13:56;;;;;;;22.00;10.02;;;;;;;;;;5083696;28;32594;-68
2021/04/20 12:16:23;;;;;;;45.70;22.98;;;;;;;;;;5083661;28;32877;-69
2021/04/20 12:18:50;;;;;;;42.50;21.33;;;;;;;;;;5083308;28;32018;-69
2021/04/20 12:21:23;;;;;;;38.70;18.05;;;;;;;;;;5084225;28;31977;-68
2021/04/20 12:23:59;;;;;;;41.63;21.13;;;;;;;;;;5083524;28;32581;-69
2021/04/20 12:26:26;;;;;;;46.08;22.13;;;;;;;;;;5080639;28;33060;-69
2021/04/20 12:28:53;;;;;;;47.00;22.10;;;;;;;;;;5082896;28;32031;-68
2021/04/20 12:31:30;;;;;;;41.50;21.10;;;;;;;;;;5080695;28;32183;-68
2021/04/20 12:33:55;;;;;;;41.85;19.75;;;;;;;;;;5083351;28;33567;-69
2021/04/20 12:36:25;;;;;;;36.00;18.33;;;;;;;;;;5083887;28;32376;-69
2021/04/20 12:38:52;;;;;;;19.30;9.77;;;;;;;;;;5083348;28;31949;-69
2021/04/20 12:41:18;;;;;;;42.63;21.27;;;;;;;;;;5083094;28;32060;-70
2021/04/20 12:43:47;;;;;;;41.30;21.25;;;;;;;;;;5083651;28;32492;-69
2021/04/20 12:46:13;;;;;;;33.60;16.88;;;;;;;;;;5083750;28;32441;-71
2021/04/20 12:48:41;;;;;;;40.53;21.13;;;;;;;;;;5083585;28;32718;-70
2021/04/20 12:51:12;;;;;;;47.50;22.15;;;;;;;;;;5082565;28;32094;-69
2021/04/20 12:53:38;;;;;;;46.22;21.77;;;;;;;;;;5080264;28;32720;-70
2021/04/20 12:56:07;;;;;;;37.55;20.52;;;;;;;;;;5082747;28;32417;-69
2021/04/20 12:58:37;;;;;;;45.97;20.45;;;;;;;;;;5083065;28;32052;-69
2021/04/20 13:01:05;;;;;;;40.45;19.80;;;;;;;;;;5082855;28;31791;-70
2021/04/20 13:03:31;;;;;;;38.03;18.30;;;;;;;;;;5082954;28;32681;-71
2021/04/20 13:05:57;;;;;;;43.97;20.50;;;;;;;;;;5083233;28;32401;-77
2021/04/20 13:08:24;;;;;;;23.40;12.93;;;;;;;;;;5082357;28;32945;-70
2021/04/20 13:10:57;;;;;;;42.95;20.92;;;;;;;;;;5082903;28;32203;-70
2021/04/20 13:13:24;;;;;;;43.00;21.75;;;;;;;;;;5082734;28;32565;-70
2021/04/20 13:15:50;;;;;;;46.35;20.05;;;;;;;;;;5081580;28;32007;-71
2021/04/20 13:18:17;;;;;;;46.70;19.35;;;;;;;;;;5082608;28;32666;-72
2021/04/20 13:20:45;;;;;;;41.05;17.63;;;;;;;;;;5079935;28;32090;-70
2021/04/20 13:23:32;;;;;;;41.25;19.30;;;;;;;;;;5086394;28;33674;-71
2021/04/20 13:26:00;;;;;;;38.05;17.30;;;;;;;;;;5089259;28;32502;-70
2021/04/20 13:28:27;;;;;;;34.35;18.25;;;;;;;;;;5084811;28;33217;-70
2021/04/20 13:30:53;;;;;;;38.45;20.17;;;;;;;;;;5082935;28;33086;-76
2021/04/20 13:33:20;;;;;;;33.55;17.52;;;;;;;;;;5082216;28;32333;-70
2021/04/20 13:35:46;;;;;;;38.00;16.98;;;;;;;;;;5082275;28;32390;-69
2021/04/20 13:38:12;;;;;;;36.80;17.52;;;;;;;;;;5082574;28;31918;-75
2021/04/20 13:40:38;;;;;;;30.63;17.35;;;;;;;;;;5082100;28;32069;-71
2021/04/20 13:43:04;;;;;;;34.05;18.90;;;;;;;;;;5079650;28;32629;-69
2021/04/20 13:45:34;;;;;;;30.08;17.90;;;;;;;;;;5081717;28;33189;-69
2021/04/20 13:48:00;;;;;;;32.53;17.40;;;;;;;;;;5082101;28;32115;-70
2021/04/20 13:50:27;;;;;;;45.30;18.83;;;;;;;;;;5082210;28;32018;-69
2021/04/20 13:52:53;;;;;;;40.78;17.98;;;;;;;;;;5081809;28;32747;-76
2021/04/20 13:55:29;;;;;;;20.58;11.13;;;;;;;;;;5082517;28;32886;-69
2021/04/20 13:58:00;;;;;;;28.30;13.18;;;;;;;;;;5081710;28;33001;-69
2021/04/20 14:00:29;;;;;;;32.03;15.88;;;;;;;;;;5081829;28;32136;-71
2021/04/20 14:02:56;;;;;;;37.75;18.20;;;;;;;;;;5080787;28;33546;-71
2021/04/20 14:05:28;;;;;;;26.20;11.85;;;;;;;;;;5081979;28;32311;-72
2021/04/20 14:07:54;;;;;;;16.88;9.93;;;;;;;;;;5082468;28;31985;-69
2021/04/20 14:10:21;;;;;;;30.83;17.08;;;;;;;;;;5081855;28;32886;-70
2021/04/20 14:12:52;;;;;;;33.28;17.65;;;;;;;;;;5079085;28;32450;-72
2021/04/20 14:15:25;;;;;;;34.20;16.58;;;;;;;;;;5081662;28;33255;-68
2021/04/20 14:18:19;;;;;;;33.53;17.05;;;;;;;;;;5082131;28;31978;-70
2021/04/20 14:20:47;;;;;;;29.65;15.20;;;;;;;;;;5080341;28;32038;-71
2021/04/20 14:23:13;;;;;;;38.75;17.55;;;;;;;;;;5081249;28;32743;-69
2021/04/20 14:25:43;;;;;;;32.53;15.82;;;;;;;;;;5081574;28;33288;-71
2021/04/20 14:28:11;;;;;;;33.03;15.50;;;;;;;;;;5079969;28;32163;-70
2021/04/20 14:30:36;;;;;;;37.67;18.27;;;;;;;;;;5080674;28;32072;-70
2021/04/20 14:33:03;;;;;;;33.08;16.88;;;;;;;;;;5080272;28;32742;-69